Time;durP1;ratioP1;P1;durP2;ratioP2;P2;SDS_P1;SDS_P2;PMS_P1;PMS_P2;Temp;Humidity;BMP_temperature;BMP_pressure;BME280_temperature;BME280_humidity;BME280_pressure;Samples;Min_cycle;Max_cycle;Signal;HPM_P1;HPM_P2
2024/02/14 00:02:08;;;;;;;3.72;2.03;;;;;;;9.50;100.00;101306.09;5287064;28;20562;-77
2024/02/14 00:04:40;;;;;;;4.55;2.20;;;;;;;9.46;100.00;101302.03;5286086;28;20040;-77
2024/02/14 00:07:12;;;;;;;4.32;2.30;;;;;;;9.48;100.00;101300.16;5284923;28;20036;-76
2024/02/14 00:09:44;;;;;;;3.88;2.30;;;;;;;9.47;100.00;101295.88;5284000;28;20054;-77
2024/02/14 00:12:16;;;;;;;3.83;2.45;;;;;;;9.49;100.00;101298.34;5288275;28;20046;-76
2024/02/14 00:14:48;;;;;;;3.95;2.35;;;;;;;9.49;100.00;101307.03;5287758;28;20036;-77
2024/02/14 00:17:21;;;;;;;3.25;2.45;;;;;;;9.54;100.00;101305.88;5285766;28;20024;-77
2024/02/14 00:19:53;;;;;;;3.67;2.60;;;;;;;9.57;100.00;101303.88;5290749;28;20027;-77
2024/02/14 00:22:25;;;;;;;5.25;3.00;;;;;;;9.57;100.00;101293.41;5289844;28;20032;-77
2024/02/14 00:24:57;;;;;;;5.95;2.95;;;;;;;9.57;100.00;101279.50;5285908;28;20070;-76
2024/02/14 00:27:29;;;;;;;3.38;2.47;;;;;;;9.62;100.00;101282.59;5282239;28;20089;-77
2024/02/14 00:30:01;;;;;;;4.25;2.78;;;;;;;9.61;100.00;101286.16;5286091;28;20040;-76
2024/02/14 00:32:33;;;;;;;4.77;2.30;;;;;;;9.64;100.00;101273.69;5288684;28;20043;-76
2024/02/14 00:35:05;;;;;;;5.40;2.80;;;;;;;9.61;100.00;101270.47;5286558;28;20024;-77
2024/02/14 00:37:37;;;;;;;4.68;2.60;;;;;;;9.71;100.00;101271.47;5287251;28;20040;-77
2024/02/14 00:40:11;;;;;;;6.47;3.40;;;;;;;9.75;100.00;101273.72;5285189;28;20043;-77
2024/02/14 00:42:43;;;;;;;3.50;2.75;;;;;;;9.65;100.00;101267.50;5287423;28;20031;-77
2024/02/14 00:45:15;;;;;;;5.25;2.78;;;;;;;9.76;100.00;101269.31;5289634;28;20442;-77
2024/02/14 00:47:47;;;;;;;5.32;3.53;;;;;;;9.76;100.00;101264.09;5287366;28;20120;-76
2024/02/14 00:50:19;;;;;;;4.25;2.70;;;;;;;9.84;100.00;101276.59;5289541;28;20039;-76
2024/02/14 00:52:50;;;;;;;5.10;2.90;;;;;;;9.81;100.00;101264.59;5289523;28;20059;-76
2024/02/14 00:55:22;;;;;;;5.85;2.70;;;;;;;9.84;100.00;101274.81;5289864;28;20032;-77
2024/02/14 00:57:54;;;;;;;4.57;3.08;;;;;;;9.89;100.00;101269.25;5287293;28;20112;-77
2024/02/14 01:00:26;;;;;;;5.88;3.28;;;;;;;9.91;100.00;101262.09;5287484;28;20051;-77
2024/02/14 01:02:58;;;;;;;4.93;2.83;;;;;;;9.95;100.00;101271.41;5291233;28;20032;-76
2024/02/14 01:05:30;;;;;;;5.10;3.08;;;;;;;10.00;100.00;101277.13;5272204;28;20040;-77
2024/02/14 01:08:02;;;;;;;4.22;2.50;;;;;;;10.05;100.00;101282.84;5286754;28;20034;-76
2024/02/14 01:10:34;;;;;;;3.42;2.83;;;;;;;10.09;100.00;101286.91;5291243;28;20040;-76
2024/02/14 01:13:06;;;;;;;4.38;2.97;;;;;;;10.10;100.00;101277.25;5289831;28;20028;-77
2024/02/14 01:15:38;;;;;;;6.03;3.17;;;;;;;10.07;100.00;101265.22;5288297;28;20032;-77
2024/02/14 01:18:10;;;;;;;3.28;2.55;;;;;;;10.15;100.00;101281.22;5287661;28;20028;-76
2024/02/14 01:20:42;;;;;;;5.10;2.75;;;;;;;10.13;100.00;101267.38;5288569;28;20495;-77
2024/02/14 01:23:14;;;;;;;5.10;2.95;;;;;;;10.17;100.00;101271.44;5290075;28;20039;-77
2024/02/14 01:25:45;;;;;;;5.30;2.80;;;;;;;10.14;100.00;101279.53;5288343;28;20028;-76
2024/02/14 01:28:17;;;;;;;4.22;2.90;;;;;;;10.21;100.00;101282.53;5287355;28;20036;-77
2024/02/14 01:30:51;;;;;;;5.13;3.08;;;;;;;10.25;100.00;101273.50;5289225;28;20032;-76
2024/02/14 01:33:23;;;;;;;;;;;;;;;10.78;100.00;101278.16;5290182;28;20044;-77
2024/02/14 01:35:55;;;;;;;4.07;2.70;;;;;;;10.35;100.00;101289.38;5287128;28;20755;-77
2024/02/14 01:38:27;;;;;;;3.38;2.67;;;;;;;10.37;100.00;101293.50;5287107;28;20489;-76
2024/02/14 01:40:59;;;;;;;4.90;3.00;;;;;;;10.35;100.00;101271.03;5288780;28;20032;-77
2024/02/14 01:43:31;;;;;;;3.72;2.65;;;;;;;10.39;100.00;101280.31;5290010;28;20032;-77
2024/02/14 01:46:06;;;;;;;3.88;2.63;;;;;;;10.46;100.00;101290.19;5288190;28;20035;-76
2024/02/14 01:48:41;;;;;;;5.47;3.00;;;;;;;10.44;100.00;101286.84;5287518;28;20028;-77
2024/02/14 01:51:17;;;;;;;3.95;2.80;;;;;;;10.45;100.00;101293.78;5289475;28;20027;-76
2024/02/14 01:53:50;;;;;;;4.88;2.58;;;;;;;10.40;100.00;101266.25;5286870;28;20028;-77
2024/02/14 01:56:22;;;;;;;4.47;2.90;;;;;;;10.55;100.00;101285.19;5286148;28;20051;-77
2024/02/14 01:58:54;;;;;;;4.50;2.65;;;;;;;10.48;100.00;101277.81;5285747;28;20046;-77
2024/02/14 02:01:26;;;;;;;3.83;2.67;;;;;;;10.58;100.00;101287.59;5287902;28;20477;-77
2024/02/14 02:03:58;;;;;;;3.80;2.95;;;;;;;10.54;100.00;101288.78;5288709;28;20066;-77
2024/02/14 02:06:30;;;;;;;4.43;2.97;;;;;;;10.51;100.00;101281.16;5283349;28;20691;-77
2024/02/14 02:09:02;;;;;;;5.75;2.80;;;;;;;10.48;100.00;101285.66;5287232;28;20031;-77
2024/02/14 02:11:50;;;;;;;3.88;2.80;;;;;;;10.68;100.00;101289.38;5286457;28;20032;-77
2024/02/14 02:14:22;;;;;;;9.77;3.50;;;;;;;10.50;100.00;101297.84;5284955;28;20928;-77
2024/02/14 02:16:54;;;;;;;4.78;3.20;;;;;;;10.54;100.00;101294.84;5287787;28;20054;-77
2024/02/14 02:19:26;;;;;;;4.85;2.83;;;;;;;10.49;100.00;101294.34;5282113;28;20031;-79
2024/02/14 02:21:59;;;;;;;5.75;3.45;;;;;;;10.43;100.00;101293.06;5287035;28;20039;-79
2024/02/14 02:24:30;;;;;;;5.60;3.10;;;;;;;10.49;100.00;101281.25;5286809;28;20051;-77
2024/02/14 02:27:03;;;;;;;5.18;3.60;;;;;;;10.50;100.00;101287.34;5284188;28;20036;-76
2024/02/14 02:29:37;;;;;;;3.25;2.92;;;;;;;10.51;100.00;101291.63;5286261;28;20048;-79
2024/02/14 02:32:09;;;;;;;5.95;3.40;;;;;;;10.50;100.00;101293.41;5286601;28;20035;-79
2024/02/14 02:34:41;;;;;;;3.75;3.05;;;;;;;10.52;100.00;101299.34;5286738;28;20039;-77
2024/02/14 02:37:13;;;;;;;5.80;3.30;;;;;;;10.54;100.00;101296.63;5283755;28;20027;-78
2024/02/14 02:39:45;;;;;;;3.28;2.90;;;;;;;10.49;100.00;101291.72;5283851;28;20516;-77
2024/02/14 02:42:18;;;;;;;4.15;3.13;;;;;;;10.49;100.00;101281.25;5287795;28;20035;-77
2024/02/14 02:44:53;;;;;;;3.90;3.03;;;;;;;10.64;100.00;101300.19;5287317;28;20341;-77
2024/02/14 02:47:24;;;;;;;6.15;3.25;;;;;;;10.54;100.00;101288.78;5288825;28;20031;-77
2024/02/14 02:49:57;;;;;;;4.82;3.40;;;;;;;10.54;100.00;101283.53;5283565;28;20043;-77
2024/02/14 02:52:30;;;;;;;5.27;3.33;;;;;;;10.50;100.00;101276.88;5285056;28;20039;-77
2024/02/14 02:55:04;;;;;;;4.55;3.45;;;;;;;10.58;100.00;101285.78;5284663;28;20282;-79
2024/02/14 02:57:38;;;;;;;4.32;2.95;;;;;;;10.58;100.00;101282.34;5286870;28;20044;-78
2024/02/14 03:00:12;;;;;;;7.13;4.30;;;;;;;10.52;100.00;101264.47;5281229;28;20722;-76
2024/02/14 03:02:44;;;;;;;5.40;3.85;;;;;;;10.65;100.00;101279.13;5285214;28;20028;-77
2024/02/14 03:05:19;;;;;;;5.40;3.45;;;;;;;10.66;100.00;101286.03;5285754;28;20028;-79
2024/02/14 03:07:52;;;;;;;6.13;3.40;;;;;;;10.66;100.00;101282.56;5283419;28;20043;-78
2024/02/14 03:10:25;;;;;;;5.93;3.70;;;;;;;10.55;100.00;101272.94;5284314;28;20044;-77
2024/02/14 03:12:57;;;;;;;4.27;3.40;;;;;;;10.68;100.00;101286.75;5286701;28;20294;-78
2024/02/14 03:15:29;;;;;;;5.35;3.70;;;;;;;10.65;100.00;101291.41;5277126;28;21503;-77
2024/02/14 03:18:01;;;;;;;4.50;3.25;;;;;;;10.64;100.00;101274.00;5276476;28;20051;-77
2024/02/14 03:20:32;;;;;;;6.03;3.65;;;;;;;10.73;100.00;101293.41;5284064;28;20031;-78
2024/02/14 03:23:04;;;;;;;4.90;3.75;;;;;;;10.70;100.00;101284.81;5282844;28;20485;-77
2024/02/14 03:25:36;;;;;;;5.97;3.40;;;;;;;10.71;100.00;101296.13;5284949;28;20032;-77
2024/02/14 03:28:08;;;;;;;4.43;3.42;;;;;;;10.76;100.00;101299.25;5283010;28;20031;-77
2024/02/14 03:30:40;;;;;;;4.00;3.08;;;;;;;10.77;100.00;101293.06;5285783;28;20385;-78
2024/02/14 03:33:13;;;;;;;4.70;3.30;;;;;;;10.73;100.00;101302.13;5285577;28;20048;-78
2024/02/14 03:35:45;;;;;;;6.30;3.20;;;;;;;10.63;100.00;101282.81;5285500;28;20512;-77
2024/02/14 03:38:27;;;;;;;4.22;3.35;;;;;;;10.84;100.00;101296.88;5280273;28;20421;-77
2024/02/14 03:40:59;;;;;;;5.40;3.58;;;;;;;10.75;100.00;101304.59;5285682;28;20491;-77
2024/02/14 03:43:32;;;;;;;6.82;3.97;;;;;;;10.76;100.00;101301.88;5285735;28;20037;-77
2024/02/14 03:46:05;;;;;;;5.20;3.67;;;;;;;10.82;100.00;101301.38;5286023;28;20372;-79
2024/02/14 03:48:36;;;;;;;4.47;3.78;;;;;;;10.82;100.00;101306.63;5283557;28;20409;-78
2024/02/14 03:51:08;;;;;;;5.63;3.90;;;;;;;10.74;100.00;101306.38;5285258;28;20032;-79
2024/02/14 03:53:40;;;;;;;6.40;3.70;;;;;;;10.82;100.00;101301.38;5286345;28;20028;-77
2024/02/14 03:56:14;;;;;;;7.38;4.07;;;;;;;10.77;100.00;101303.53;5281589;28;20049;-77
2024/02/14 03:58:46;;;;;;;4.90;3.70;;;;;;;10.90;100.00;101303.41;5283664;28;20028;-79
2024/02/14 04:01:19;;;;;;;7.30;3.72;;;;;;;10.88;100.00;101311.38;5284039;28;20024;-77
2024/02/14 04:03:51;;;;;;;5.35;4.03;;;;;;;10.93;100.00;101311.03;5284781;28;20172;-77
2024/02/14 04:06:24;;;;;;;6.20;3.60;;;;;;;10.89;100.00;101309.59;5285709;28;20053;-77
2024/02/14 04:08:56;;;;;;;6.78;4.25;;;;;;;11.02;100.00;101312.06;5283987;28;20504;-76
2024/02/14 04:11:28;;;;;;;7.50;3.67;;;;;;;10.95;100.00;101312.59;5286602;28;20050;-77
2024/02/14 04:14:00;;;;;;;5.10;3.50;;;;;;;10.99;100.00;101314.97;5285120;28;20036;-79
2024/02/14 04:16:31;;;;;;;5.63;3.45;;;;;;;10.90;100.00;101319.94;5281025;28;20400;-78
2024/02/14 04:19:03;;;;;;;4.80;3.70;;;;;;;10.84;100.00;101303.91;5288258;28;20024;-79
2024/02/14 04:21:35;;;;;;;4.30;3.40;;;;;;;10.95;100.00;101322.25;5289546;28;20042;-78
2024/02/14 04:24:07;;;;;;;4.97;3.35;;;;;;;10.90;100.00;101306.84;5287760;28;20387;-76
2024/02/14 04:26:40;;;;;;;5.18;3.58;;;;;;;11.01;100.00;101326.16;5285654;28;20035;-77
2024/02/14 04:29:12;;;;;;;8.05;3.35;;;;;;;10.93;100.00;101317.09;5284868;28;20036;-77
2024/02/14 04:31:44;;;;;;;6.22;3.85;;;;;;;10.95;100.00;101320.44;5285488;28;20580;-79
2024/02/14 04:34:16;;;;;;;5.05;3.70;;;;;;;10.97;100.00;101328.19;5289488;28;20028;-79
2024/02/14 04:36:48;;;;;;;4.70;3.53;;;;;;;11.02;100.00;101327.81;5287616;28;20499;-80
2024/02/14 04:39:20;;;;;;;4.18;3.30;;;;;;;11.03;100.00;101330.31;5288298;28;20044;-78
2024/02/14 04:41:53;;;;;;;4.78;3.53;;;;;;;10.95;100.00;101325.69;5287081;28;20028;-79
2024/02/14 04:44:24;;;;;;;4.22;3.15;;;;;;;11.07;100.00;101325.69;5288970;28;20042;-78
2024/02/14 04:46:58;;;;;;;6.35;3.80;;;;;;;11.05;100.00;101338.06;5287694;28;20397;-78
2024/02/14 04:49:30;;;;;;;4.90;3.72;;;;;;;11.07;100.00;101336.16;5288754;28;20036;-80
2024/02/14 04:52:02;;;;;;;4.97;3.88;;;;;;;11.07;100.00;101341.41;5289365;28;20158;-80
2024/02/14 04:54:34;;;;;;;4.80;3.60;;;;;;;11.10;100.00;101343.75;5290645;28;20047;-78
2024/02/14 04:57:06;;;;;;;8.55;4.18;;;;;;;11.11;100.00;101343.66;5284167;28;20040;-77
2024/02/14 04:59:38;;;;;;;6.85;3.90;;;;;;;11.13;100.00;101351.41;5289001;28;20067;-77
2024/02/14 05:02:10;;;;;;;5.07;3.70;;;;;;;11.00;100.00;101329.72;5288413;28;20564;-81
2024/02/14 05:04:42;;;;;;;4.93;3.70;;;;;;;11.10;100.00;101347.25;5287447;28;20242;-80
2024/02/14 05:07:15;;;;;;;4.63;3.90;;;;;;;11.09;100.00;101348.19;5286915;28;20035;-78
2024/02/14 05:09:50;;;;;;;6.57;4.32;;;;;;;11.13;100.00;101354.84;5287149;28;20021;-76
2024/02/14 05:12:22;;;;;;;7.38;4.72;;;;;;;11.11;100.00;101340.22;5290632;28;20032;-78
2024/02/14 05:14:53;;;;;;;7.18;4.53;;;;;;;11.12;100.00;101352.34;5290045;28;20052;-78
2024/02/14 05:17:25;;;;;;;6.00;4.38;;;;;;;11.14;100.00;101353.91;5287950;28;20040;-79
2024/02/14 05:19:57;;;;;;;5.72;4.35;;;;;;;11.11;100.00;101351.53;5283374;28;20034;-78
2024/02/14 05:22:29;;;;;;;5.20;4.43;;;;;;;11.13;100.00;101354.00;5287527;28;20036;-78
2024/02/14 05:25:01;;;;;;;6.97;4.35;;;;;;;11.06;100.00;101355.44;5285718;28;20384;-78
2024/02/14 05:27:33;;;;;;;5.90;4.28;;;;;;;11.06;100.00;101342.34;5279634;28;20028;-78
2024/02/14 05:30:06;;;;;;;5.43;4.75;;;;;;;11.06;100.00;101351.06;5285219;28;20034;-77
2024/02/14 05:32:39;;;;;;;7.55;5.47;;;;;;;11.11;100.00;101348.91;5288429;28;20028;-78
2024/02/14 05:35:11;;;;;;;6.10;4.47;;;;;;;11.14;100.00;101353.91;5289667;28;20028;-79
2024/02/14 05:37:43;;;;;;;6.03;4.63;;;;;;;11.14;100.00;101360.94;5285707;28;20048;-78
2024/02/14 05:40:15;;;;;;;5.47;4.70;;;;;;;11.09;100.00;101358.66;5287131;28;20869;-77
2024/02/14 05:42:47;;;;;;;6.30;4.30;;;;;;;11.18;100.00;101357.97;5288983;28;20104;-79
2024/02/14 05:45:19;;;;;;;6.03;4.50;;;;;;;11.15;100.00;101365.22;5287436;28;20028;-78
2024/02/14 05:47:51;;;;;;;5.43;4.40;;;;;;;11.17;100.00;101365.94;5282930;28;20042;-78
2024/02/14 05:50:23;;;;;;;5.60;4.03;;;;;;;11.13;100.00;101356.63;5286233;28;20482;-78
2024/02/14 05:52:57;;;;;;;5.38;4.53;;;;;;;11.19;100.00;101357.00;5287355;28;20664;-78
2024/02/14 05:55:29;;;;;;;5.75;4.53;;;;;;;11.20;100.00;101360.44;5283480;28;20162;-78
2024/02/14 05:58:01;;;;;;;7.20;4.75;;;;;;;11.23;100.00;101362.00;5284768;28;20055;-78
2024/02/14 06:00:33;;;;;;;5.38;4.63;;;;;;;11.22;100.00;101366.41;5281921;28;20034;-78
2024/02/14 06:03:06;;;;;;;6.28;5.18;;;;;;;11.19;100.00;101372.72;5285789;28;20036;-78
2024/02/14 06:05:38;;;;;;;5.82;4.68;;;;;;;11.22;100.00;101363.78;5285598;28;20039;-78
2024/02/14 06:08:09;;;;;;;7.68;5.10;;;;;;;11.22;100.00;101369.03;5285572;28;20490;-79
2024/02/14 06:10:41;;;;;;;5.55;5.00;;;;;;;11.22;100.00;101369.03;5280693;28;20062;-78
2024/02/14 06:13:13;;;;;;;7.68;5.55;;;;;;;11.23;100.00;101378.56;5285698;28;20031;-78
2024/02/14 06:15:45;;;;;;;6.07;4.97;;;;;;;11.23;100.00;101370.69;5287575;28;20038;-79
2024/02/14 06:18:17;;;;;;;7.60;5.60;;;;;;;11.19;100.00;101375.34;5291504;28;20024;-78
2024/02/14 06:20:49;;;;;;;7.03;5.85;;;;;;;11.22;100.00;101371.66;5294675;28;20110;-79
2024/02/14 06:23:21;;;;;;;9.02;6.07;;;;;;;11.24;100.00;101382.84;5293985;28;20047;-78
2024/02/14 06:25:53;;;;;;;6.97;5.13;;;;;;;11.20;100.00;101370.94;5274740;28;20048;-79
2024/02/14 06:28:25;;;;;;;11.93;6.25;;;;;;;11.29;100.00;101380.72;5288145;28;20477;-78
2024/02/14 06:30:57;;;;;;;7.70;5.57;;;;;;;11.28;100.00;101386.91;5289847;28;20020;-78
2024/02/14 06:33:29;;;;;;;8.30;6.20;;;;;;;11.32;100.00;101396.19;5289902;28;20694;-78
2024/02/14 06:36:01;;;;;;;8.38;5.95;;;;;;;11.24;100.00;101389.88;5290260;28;20078;-79
2024/02/14 06:38:32;;;;;;;7.57;6.30;;;;;;;11.32;100.00;101403.22;5286560;28;20051;-78
2024/02/14 06:41:05;;;;;;;9.50;6.88;;;;;;;11.26;100.00;101391.44;5294285;28;20564;-79
2024/02/14 06:43:39;;;;;;;8.80;6.68;;;;;;;11.22;100.00;101382.16;5298356;28;20032;-78
2024/02/14 06:46:10;;;;;;;8.93;6.18;;;;;;;11.36;100.00;101415.97;5291253;28;20051;-78
2024/02/14 06:48:43;;;;;;;6.90;5.72;;;;;;;11.41;100.00;101413.84;5287692;28;20773;-78
2024/02/14 06:51:15;;;;;;;8.02;6.40;;;;;;;11.39;100.00;101420.16;5290403;28;20020;-78
2024/02/14 06:53:47;;;;;;;9.65;5.78;;;;;;;11.44;100.00;101416.22;5289619;28;20699;-79
2024/02/14 06:56:19;;;;;;;9.95;7.05;;;;;;;11.43;100.00;101409.28;5289323;28;20044;-78
2024/02/14 06:58:53;;;;;;;8.30;5.95;;;;;;;11.44;100.00;101416.22;5287938;28;20043;-79
2024/02/14 07:01:26;;;;;;;10.07;6.60;;;;;;;11.44;100.00;101424.09;5289957;28;20031;-78
2024/02/14 07:03:58;;;;;;;7.50;6.47;;;;;;;11.45;100.00;101415.25;5287450;28;20046;-77
2024/02/14 07:06:30;;;;;;;8.15;6.13;;;;;;;11.43;100.00;101425.03;5290014;28;20032;-78
2024/02/14 07:09:02;;;;;;;7.28;5.85;;;;;;;11.35;100.00;101424.81;5287564;28;20716;-78
2024/02/14 07:11:37;;;;;;;7.82;6.28;;;;;;;11.43;100.00;101429.44;5289547;28;20059;-78
2024/02/14 07:14:09;;;;;;;8.00;6.70;;;;;;;11.42;100.00;101433.88;5290238;28;20961;-78
2024/02/14 07:16:41;;;;;;;9.13;6.50;;;;;;;11.38;100.00;101440.31;5287718;28;20036;-78
2024/02/14 07:19:12;;;;;;;8.50;6.35;;;;;;;11.42;100.00;101433.88;5284697;28;20036;-78
2024/02/14 07:21:44;;;;;;;6.80;6.10;;;;;;;11.38;100.00;101445.56;5271275;28;20801;-78
2024/02/14 07:24:16;;;;;;;9.10;7.03;;;;;;;11.38;100.00;101442.09;5288574;28;20015;-78
2024/02/14 07:26:48;;;;;;;9.00;6.93;;;;;;;11.29;100.00;101419.19;5290404;28;20085;-78
2024/02/14 07:29:20;;;;;;;8.23;6.32;;;;;;;11.38;100.00;101442.09;5285756;28;20029;-78
2024/02/14 07:31:52;;;;;;;10.10;6.95;;;;;;;11.38;100.00;101442.94;5287418;28;20106;-78
2024/02/14 07:34:24;;;;;;;7.07;6.35;;;;;;;11.41;100.00;101439.25;5285552;28;20473;-78
2024/02/14 07:36:56;;;;;;;10.47;6.53;;;;;;;11.47;100.00;101432.66;5284316;28;20038;-78
2024/02/14 07:39:28;;;;;;;7.85;6.25;;;;;;;11.47;100.00;101445.78;5287838;28;20040;-78
2024/02/14 07:42:01;;;;;;;10.82;6.85;;;;;;;11.45;100.00;101431.00;5289650;28;20039;-78
2024/02/14 07:44:34;;;;;;;8.43;6.45;;;;;;;11.43;100.00;101430.28;5288995;28;20044;-78
2024/02/14 07:47:06;;;;;;;9.70;6.60;;;;;;;11.43;100.00;101426.81;5288331;28;20032;-78
2024/02/14 07:49:39;;;;;;;7.40;6.28;;;;;;;11.43;100.00;101443.41;5287187;28;20379;-78
2024/02/14 07:52:11;;;;;;;;;;;;;;;12.01;100.00;101434.47;5288764;28;20035;-78
2024/02/14 07:54:42;;;;;;;11.13;6.68;;;;;;;11.55;100.00;101438.13;5286055;28;19916;-78
2024/02/14 07:57:14;;;;;;;9.55;6.78;;;;;;;11.39;100.00;101420.16;5286421;28;20507;-78
2024/02/14 07:59:46;;;;;;;10.27;7.05;;;;;;;11.51;100.00;101441.97;5287309;28;20032;-78
2024/02/14 08:02:19;;;;;;;11.82;6.90;;;;;;;11.53;100.00;101454.03;5285258;28;20027;-78
2024/02/14 08:04:51;;;;;;;;;;;;;;;12.04;100.00;101445.56;5285997;28;20055;-78
2024/02/14 08:07:23;;;;;;;10.07;6.50;;;;;;;11.53;100.00;101424.31;5286891;28;19912;-78
2024/02/14 08:09:55;;;;;;;7.95;6.00;;;;;;;11.64;100.00;101454.00;5286710;28;20024;-78
2024/02/14 08:12:27;;;;;;;13.85;7.10;;;;;;;11.63;100.00;101454.09;5287082;28;20342;-78
2024/02/14 08:15:03;;;;;;;12.10;6.75;;;;;;;11.63;100.00;101454.09;5289678;28;20116;-78
2024/02/14 08:17:35;;;;;;;12.02;7.63;;;;;;;11.66;100.00;101453.88;5292049;28;20349;-79
2024/02/14 08:20:08;;;;;;;8.32;6.20;;;;;;;11.70;100.00;101447.41;5293020;28;20038;-79
2024/02/14 08:22:39;;;;;;;11.40;6.43;;;;;;;11.73;100.00;101439.31;5293539;28;20303;-78
2024/02/14 08:25:11;;;;;;;9.20;5.68;;;;;;;11.75;100.00;101445.28;5292985;28;20036;-79
2024/02/14 08:27:43;;;;;;;8.27;6.22;;;;;;;11.82;100.00;101449.09;5290748;28;20075;-79
2024/02/14 08:30:15;;;;;;;9.30;6.55;;;;;;;11.79;100.00;101449.31;5293268;28;20102;-79
2024/02/14 08:32:47;;;;;;;9.90;6.30;;;;;;;11.81;100.00;101455.25;5294255;28;20472;-79
2024/02/14 08:35:19;;;;;;;9.25;6.18;;;;;;;11.81;100.00;101460.50;5285635;28;20032;-79
2024/02/14 08:37:51;;;;;;;10.15;6.15;;;;;;;11.83;100.00;101457.78;5284425;28;20023;-79
2024/02/14 08:40:23;;;;;;;9.45;5.97;;;;;;;11.88;100.00;101460.91;5287860;28;20048;-80
2024/02/14 08:42:55;;;;;;;8.82;5.88;;;;;;;11.96;100.00;101455.03;5286819;28;20031;-79
2024/02/14 08:45:29;;;;;;;7.40;5.13;;;;;;;12.02;100.00;101467.66;5294477;28;20801;-79
2024/02/14 08:48:01;;;;;;;8.05;6.22;;;;;;;11.99;100.00;101453.00;5285575;28;20051;-80
2024/02/14 08:50:33;;;;;;;9.25;5.70;;;;;;;12.03;100.00;101462.28;5287681;28;20035;-79
2024/02/14 08:53:06;;;;;;;11.70;5.60;;;;;;;12.08;100.00;101454.03;5288574;28;20496;-79
2024/02/14 08:55:38;;;;;;;7.03;5.13;;;;;;;12.11;100.00;101457.22;5284253;28;20044;-78
2024/02/14 08:58:10;;;;;;;9.77;5.45;;;;;;;12.15;100.00;101458.66;5284904;28;20030;-79
2024/02/14 09:00:42;;;;;;;10.07;5.50;;;;;;;12.16;100.00;101468.22;5286538;28;20389;-79
2024/02/14 09:03:14;;;;;;;7.78;4.93;;;;;;;12.21;100.00;101475.72;5287113;28;20030;-79
2024/02/14 09:05:46;;;;;;;8.23;5.50;;;;;;;12.23;100.00;101475.59;5291372;28;20028;-79
2024/02/14 09:08:20;;;;;;;8.25;5.65;;;;;;;12.28;100.00;101482.16;5287363;28;20039;-79
2024/02/14 09:10:52;;;;;;;6.50;5.10;;;;;;;12.21;100.00;101480.97;5290267;28;20023;-78
2024/02/14 09:13:24;;;;;;;9.43;4.82;;;;;;;12.31;100.00;101487.16;5291459;28;20495;-79
2024/02/14 09:15:56;;;;;;;9.85;4.90;;;;;;;12.23;100.00;101465.91;5289893;28;20028;-79
2024/02/14 09:18:29;;;;;;;7.53;5.43;;;;;;;12.32;100.00;101488.81;5288591;28;20855;-79
2024/02/14 09:21:03;;;;;;;6.43;5.15;;;;;;;12.33;100.00;101485.22;5291013;28;20029;-78
2024/02/14 09:23:39;;;;;;;9.82;5.35;;;;;;;12.38;100.00;101487.47;5289507;28;20032;-78
2024/02/14 09:26:10;;;;;;;8.57;5.22;;;;;;;12.34;100.00;101492.13;5291881;28;20501;-79
2024/02/14 09:28:43;;;;;;;8.05;5.15;;;;;;;12.37;100.00;101497.16;5289563;28;20058;-78
2024/02/14 09:31:19;;;;;;;7.97;5.55;;;;;;;12.46;100.00;101497.34;5289282;28;20401;-79
2024/02/14 09:33:52;;;;;;;9.20;5.60;;;;;;;12.39;100.00;101489.16;5289913;28;20047;-78
2024/02/14 09:36:25;;;;;;;7.97;5.28;;;;;;;12.42;100.00;101494.13;5290816;28;20028;-78
2024/02/14 09:38:57;;;;;;;7.13;5.15;;;;;;;12.42;100.00;101494.13;5287670;28;20039;-78
2024/02/14 09:41:33;;;;;;;6.32;5.40;;;;;;;12.51;100.00;101503.91;5291253;28;20028;-78
2024/02/14 09:44:05;;;;;;;7.65;5.30;;;;;;;12.51;100.00;101498.66;5290120;28;20028;-78
2024/02/14 09:46:38;;;;;;;7.03;5.32;;;;;;;12.53;100.00;101515.09;5289951;28;20027;-78
2024/02/14 09:49:11;;;;;;;6.85;4.72;;;;;;;12.58;100.00;101506.88;5287862;28;20034;-78
2024/02/14 09:51:44;;;;;;;;;;;;;;;13.19;100.00;101501.72;5290891;28;20279;-78
2024/02/14 09:54:17;;;;;;;6.65;4.88;;;;;;;12.75;100.00;101508.91;5292045;28;19912;-78
2024/02/14 09:56:53;;;;;;;8.13;5.15;;;;;;;12.79;100.00;101505.06;5287845;28;20048;-78
2024/02/14 09:59:25;;;;;;;7.55;4.95;;;;;;;12.64;100.00;101504.53;5284652;28;20051;-78
2024/02/14 10:01:58;;;;;;;9.95;5.82;;;;;;;12.71;100.00;101497.00;5285065;28;20035;-79
2024/02/14 10:04:30;;;;;;;7.30;5.07;;;;;;;12.74;100.00;101499.38;5282628;28;20028;-78
2024/02/14 10:07:02;;;;;;;6.90;5.07;;;;;;;12.73;100.00;101496.84;5287919;28;20319;-79
2024/02/14 10:09:41;;;;;;;8.90;4.82;;;;;;;12.79;100.00;101491.91;5297891;28;20028;-79
2024/02/14 10:12:13;;;;;;;7.63;4.65;;;;;;;12.66;100.00;101491.28;5293054;28;20640;-78
2024/02/14 10:14:45;;;;;;;6.30;4.68;;;;;;;12.81;100.00;101511.03;5290056;28;20028;-78
2024/02/14 10:17:19;;;;;;;7.63;5.13;;;;;;;12.83;100.00;101501.22;5291442;28;20027;-78
2024/02/14 10:20:05;;;;;;;;;;;;;;;13.42;100.00;101512.94;5286465;28;20032;-79
2024/02/14 10:22:37;;;;;;;6.97;4.38;;;;;;;12.83;100.00;101510.91;5289073;28;19916;-78
2024/02/14 10:25:10;;;;;;;6.65;4.97;;;;;;;12.81;100.00;101511.03;5289730;28;20023;-78
2024/02/14 10:27:42;;;;;;;9.30;4.85;;;;;;;12.85;100.00;101511.63;5287439;28;20246;-78
2024/02/14 10:30:14;;;;;;;7.07;4.90;;;;;;;12.74;100.00;101514.31;5289371;28;20397;-78
2024/02/14 10:32:49;;;;;;;6.87;5.23;;;;;;;12.81;100.00;101521.56;5288789;28;20031;-78
2024/02/14 10:35:21;;;;;;;5.70;4.75;;;;;;;12.83;100.00;101526.69;5288871;28;20278;-78
2024/02/14 10:38:00;;;;;;;8.02;5.13;;;;;;;12.89;100.00;101527.00;5288452;28;20015;-78
2024/02/14 10:40:33;;;;;;;6.88;5.05;;;;;;;12.87;100.00;101510.50;5287735;28;20038;-79
2024/02/14 10:43:06;;;;;;;7.55;5.80;;;;;;;12.96;100.00;101521.25;5289695;28;20027;-79
2024/02/14 10:45:39;;;;;;;6.40;5.00;;;;;;;12.94;100.00;101529.25;5289334;28;20039;-78
2024/02/14 10:48:12;;;;;;;6.20;5.15;;;;;;;12.89;100.00;101510.41;5286336;28;20032;-78
2024/02/14 10:50:44;;;;;;;5.13;4.25;;;;;;;12.94;100.00;101517.91;5286402;28;20397;-79
2024/02/14 10:53:17;;;;;;;5.07;4.28;;;;;;;13.03;100.00;101525.00;5290402;28;20054;-78
2024/02/14 10:55:49;;;;;;;6.72;4.88;;;;;;;13.03;100.00;101525.00;5288294;28;20055;-78
2024/02/14 10:58:24;;;;;;;6.57;4.67;;;;;;;13.08;100.00;101528.94;5287546;28;20031;-78
2024/02/14 11:00:57;;;;;;;5.70;4.20;;;;;;;13.07;100.00;101526.44;5288106;28;20305;-78
2024/02/14 11:03:30;;;;;;;6.00;4.80;;;;;;;13.09;100.00;101524.50;5290610;28;20027;-79
2024/02/14 11:06:03;;;;;;;5.25;4.07;;;;;;;13.06;100.00;101514.22;5282896;28;20051;-79
2024/02/14 11:08:35;;;;;;;5.28;3.80;;;;;;;13.09;100.00;101527.13;5286696;28;20036;-79
2024/02/14 11:11:07;;;;;;;5.72;3.35;;;;;;;13.11;100.00;101523.41;5286583;28;20024;-79
2024/02/14 11:13:40;;;;;;;6.72;3.65;;;;;;;13.05;100.00;101504.69;5288319;28;20310;-79
2024/02/14 11:16:12;;;;;;;4.75;3.65;;;;;;;13.08;100.00;101521.03;5288338;28;20023;-79
2024/02/14 11:18:44;;;;;;;4.07;2.83;;;;;;;13.07;100.00;101513.28;5287789;28;20509;-79
2024/02/14 11:21:17;;;;;;;3.20;2.90;;;;;;;13.08;100.00;101513.13;5289961;28;20036;-79
2024/02/14 11:23:54;;;;;;;3.65;2.88;;;;;;;13.20;100.00;101507.81;5290949;28;20488;-79
2024/02/14 11:26:28;;;;;;;3.85;3.22;;;;;;;13.13;100.00;101513.56;5285909;28;20039;-80
2024/02/14 11:29:01;;;;;;;2.97;2.65;;;;;;;13.05;100.00;101502.03;5286759;28;20032;-78
2024/02/14 11:31:35;;;;;;;2.97;2.67;;;;;;;13.09;100.00;101504.28;5282820;28;20274;-78
2024/02/14 11:34:08;;;;;;;4.10;2.80;;;;;;;13.04;100.00;101505.66;5286424;28;20448;-78
2024/02/14 11:36:44;;;;;;;3.08;2.53;;;;;;;13.13;100.00;101508.31;5287208;28;20031;-78
2024/02/14 11:39:16;;;;;;;5.05;2.90;;;;;;;13.10;100.00;101510.38;5280384;28;20043;-78
2024/02/14 11:41:48;;;;;;;3.75;3.20;;;;;;;13.03;100.00;101499.56;5290088;28;21142;-78
2024/02/14 11:44:21;;;;;;;4.20;3.60;;;;;;;13.09;100.00;101499.00;5290185;28;20027;-78